sensor_id;sensor_type;location;lat;lon;timestamp;P1;durP1;ratioP1;P2;durP2;ratioP2
3997;SDS011;61314;53.444;9.902;2023-11-22T00:01:09;5.55;;;4.43;;
3997;SDS011;61314;53.444;9.902;2023-11-22T00:03:37;8.15;;;3.53;;
3997;SDS011;61314;53.444;9.902;2023-11-22T00:06:05;5.15;;;4.10;;
3997;SDS011;61314;53.444;9.902;2023-11-22T00:08:33;3.85;;;3.50;;
3997;SDS011;61314;53.444;9.902;2023-11-22T00:11:00;3.95;;;3.65;;
3997;SDS011;61314;53.444;9.902;2023-11-22T00:13:27;3.85;;;3.45;;
3997;SDS011;61314;53.444;9.902;2023-11-22T00:15:55;3.10;;;2.85;;
3997;SDS011;61314;53.444;9.902;2023-11-22T00:18:23;2.63;;;2.50;;
3997;SDS011;61314;53.444;9.902;2023-11-22T00:20:52;3.58;;;3.05;;
3997;SDS011;61314;53.444;9.902;2023-11-22T00:23:21;6.35;;;3.60;;
3997;SDS011;61314;53.444;9.902;2023-11-22T00:25:53;5.25;;;3.95;;
3997;SDS011;61314;53.444;9.902;2023-11-22T00:28:20;5.10;;;3.63;;
3997;SDS011;61314;53.444;9.902;2023-11-22T00:30:48;7.25;;;3.00;;
3997;SDS011;61314;53.444;9.902;2023-11-22T00:33:16;8.07;;;3.83;;
3997;SDS011;61314;53.444;9.902;2023-11-22T00:35:45;4.80;;;3.63;;
3997;SDS011;61314;53.444;9.902;2023-11-22T00:38:12;4.93;;;3.55;;
3997;SDS011;61314;53.444;9.902;2023-11-22T00:40:39;3.92;;;3.53;;
3997;SDS011;61314;53.444;9.902;2023-11-22T00:43:07;5.13;;;3.95;;
3997;SDS011;61314;53.444;9.902;2023-11-22T00:45:34;4.32;;;4.03;;
3997;SDS011;61314;53.444;9.902;2023-11-22T00:48:01;3.45;;;3.15;;
3997;SDS011;61314;53.444;9.902;2023-11-22T00:50:28;5.45;;;3.85;;
3997;SDS011;61314;53.444;9.902;2023-11-22T00:52:56;5.28;;;3.78;;
3997;SDS011;61314;53.444;9.902;2023-11-22T00:55:23;5.93;;;4.30;;
3997;SDS011;61314;53.444;9.902;2023-11-22T00:57:50;8.70;;;4.82;;
3997;SDS011;61314;53.444;9.902;2023-11-22T01:00:17;10.80;;;5.10;;
3997;SDS011;61314;53.444;9.902;2023-11-22T01:02:44;10.30;;;5.85;;
3997;SDS011;61314;53.444;9.902;2023-11-22T01:05:11;10.50;;;6.20;;
3997;SDS011;61314;53.444;9.902;2023-11-22T01:07:39;10.57;;;5.90;;
3997;SDS011;61314;53.444;9.902;2023-11-22T01:10:06;14.00;;;6.70;;
3997;SDS011;61314;53.444;9.902;2023-11-22T01:12:33;10.30;;;5.72;;
3997;SDS011;61314;53.444;9.902;2023-11-22T01:15:01;11.68;;;6.18;;
3997;SDS011;61314;53.444;9.902;2023-11-22T01:17:28;7.13;;;4.88;;
3997;SDS011;61314;53.444;9.902;2023-11-22T01:19:55;8.50;;;4.55;;
3997;SDS011;61314;53.444;9.902;2023-11-22T01:22:22;6.22;;;4.68;;
3997;SDS011;61314;53.444;9.902;2023-11-22T01:24:49;6.05;;;3.90;;
3997;SDS011;61314;53.444;9.902;2023-11-22T01:27:16;4.50;;;4.10;;
3997;SDS011;61314;53.444;9.902;2023-11-22T01:29:43;5.35;;;3.97;;
3997;SDS011;61314;53.444;9.902;2023-11-22T01:32:11;5.20;;;3.75;;
3997;SDS011;61314;53.444;9.902;2023-11-22T01:34:39;7.25;;;3.65;;
3997;SDS011;61314;53.444;9.902;2023-11-22T01:37:06;6.45;;;4.35;;
3997;SDS011;61314;53.444;9.902;2023-11-22T01:39:33;5.70;;;4.40;;
3997;SDS011;61314;53.444;9.902;2023-11-22T01:42:00;4.40;;;3.55;;
3997;SDS011;61314;53.444;9.902;2023-11-22T01:44:27;3.55;;;3.25;;
3997;SDS011;61314;53.444;9.902;2023-11-22T01:46:54;5.50;;;4.13;;
3997;SDS011;61314;53.444;9.902;2023-11-22T01:49:21;4.55;;;3.42;;
3997;SDS011;61314;53.444;9.902;2023-11-22T01:51:50;5.43;;;3.40;;
3997;SDS011;61314;53.444;9.902;2023-11-22T01:54:17;5.80;;;3.70;;
3997;SDS011;61314;53.444;9.902;2023-11-22T01:56:45;3.78;;;3.42;;
3997;SDS011;61314;53.444;9.902;2023-11-22T01:59:12;5.65;;;3.72;;
3997;SDS011;61314;53.444;9.902;2023-11-22T02:01:41;6.75;;;3.83;;
3997;SDS011;61314;53.444;9.902;2023-11-22T02:04:09;5.20;;;4.20;;
3997;SDS011;61314;53.444;9.902;2023-11-22T02:06:36;4.35;;;3.88;;
3997;SDS011;61314;53.444;9.902;2023-11-22T02:09:03;4.05;;;3.65;;
3997;SDS011;61314;53.444;9.902;2023-11-22T02:11:30;4.18;;;3.88;;
3997;SDS011;61314;53.444;9.902;2023-11-22T02:13:57;4.80;;;3.55;;
3997;SDS011;61314;53.444;9.902;2023-11-22T02:16:25;4.57;;;3.67;;
3997;SDS011;61314;53.444;9.902;2023-11-22T02:18:52;5.35;;;3.85;;
3997;SDS011;61314;53.444;9.902;2023-11-22T02:21:19;4.35;;;3.33;;
3997;SDS011;61314;53.444;9.902;2023-11-22T02:23:47;11.35;;;3.85;;
3997;SDS011;61314;53.444;9.902;2023-11-22T02:26:15;5.07;;;3.85;;
3997;SDS011;61314;53.444;9.902;2023-11-22T02:28:45;4.05;;;3.65;;
3997;SDS011;61314;53.444;9.902;2023-11-22T02:31:12;3.47;;;3.17;;
3997;SDS011;61314;53.444;9.902;2023-11-22T02:33:39;3.90;;;3.60;;
3997;SDS011;61314;53.444;9.902;2023-11-22T02:36:08;3.80;;;3.50;;
3997;SDS011;61314;53.444;9.902;2023-11-22T02:38:38;3.47;;;3.17;;
3997;SDS011;61314;53.444;9.902;2023-11-22T02:41:06;5.18;;;4.00;;
3997;SDS011;61314;53.444;9.902;2023-11-22T02:43:35;8.07;;;4.85;;
3997;SDS011;61314;53.444;9.902;2023-11-22T02:46:02;4.93;;;3.95;;
3997;SDS011;61314;53.444;9.902;2023-11-22T02:48:30;4.63;;;4.18;;
3997;SDS011;61314;53.444;9.902;2023-11-22T02:50:57;3.90;;;3.55;;
3997;SDS011;61314;53.444;9.902;2023-11-22T02:53:24;5.63;;;4.70;;
3997;SDS011;61314;53.444;9.902;2023-11-22T02:55:53;5.28;;;4.78;;
3997;SDS011;61314;53.444;9.902;2023-11-22T02:58:22;5.18;;;3.92;;
3997;SDS011;61314;53.444;9.902;2023-11-22T03:00:49;6.60;;;5.05;;
3997;SDS011;61314;53.444;9.902;2023-11-22T03:03:16;5.63;;;4.43;;
3997;SDS011;61314;53.444;9.902;2023-11-22T03:05:43;8.38;;;4.70;;
3997;SDS011;61314;53.444;9.902;2023-11-22T03:08:10;5.63;;;4.72;;
3997;SDS011;61314;53.444;9.902;2023-11-22T03:10:39;6.82;;;5.07;;
3997;SDS011;61314;53.444;9.902;2023-11-22T03:13:06;6.82;;;4.65;;
3997;SDS011;61314;53.444;9.902;2023-11-22T03:15:34;5.15;;;4.32;;
3997;SDS011;61314;53.444;9.902;2023-11-22T03:18:02;5.10;;;4.40;;
3997;SDS011;61314;53.444;9.902;2023-11-22T03:20:30;6.97;;;4.45;;
3997;SDS011;61314;53.444;9.902;2023-11-22T03:22:58;7.18;;;4.38;;
3997;SDS011;61314;53.444;9.902;2023-11-22T03:25:26;5.60;;;4.13;;
3997;SDS011;61314;53.444;9.902;2023-11-22T03:27:54;6.25;;;4.40;;
3997;SDS011;61314;53.444;9.902;2023-11-22T03:30:22;6.43;;;4.70;;
3997;SDS011;61314;53.444;9.902;2023-11-22T03:32:49;7.47;;;4.22;;
3997;SDS011;61314;53.444;9.902;2023-11-22T03:35:16;4.40;;;3.97;;
3997;SDS011;61314;53.444;9.902;2023-11-22T03:37:43;4.47;;;4.05;;
3997;SDS011;61314;53.444;9.902;2023-11-22T03:40:10;5.28;;;4.35;;
3997;SDS011;61314;53.444;9.902;2023-11-22T03:42:40;9.57;;;4.30;;
3997;SDS011;61314;53.444;9.902;2023-11-22T03:45:08;7.00;;;4.88;;
3997;SDS011;61314;53.444;9.902;2023-11-22T03:47:35;9.82;;;5.63;;
3997;SDS011;61314;53.444;9.902;2023-11-22T03:50:05;5.47;;;4.05;;
3997;SDS011;61314;53.444;9.902;2023-11-22T03:52:32;5.63;;;4.68;;
3997;SDS011;61314;53.444;9.902;2023-11-22T03:54:59;5.45;;;4.95;;
3997;SDS011;61314;53.444;9.902;2023-11-22T03:57:27;7.75;;;5.30;;
3997;SDS011;61314;53.444;9.902;2023-11-22T03:59:54;5.57;;;5.03;;
3997;SDS011;61314;53.444;9.902;2023-11-22T04:02:21;4.63;;;4.20;;
3997;SDS011;61314;53.444;9.902;2023-11-22T04:04:48;8.05;;;5.20;;
3997;SDS011;61314;53.444;9.902;2023-11-22T04:07:15;6.38;;;5.22;;
3997;SDS011;61314;53.444;9.902;2023-11-22T04:09:42;6.70;;;5.47;;
3997;SDS011;61314;53.444;9.902;2023-11-22T04:12:09;5.43;;;4.75;;
3997;SDS011;61314;53.444;9.902;2023-11-22T04:14:36;6.65;;;4.60;;
3997;SDS011;61314;53.444;9.902;2023-11-22T04:17:04;6.88;;;4.93;;
3997;SDS011;61314;53.444;9.902;2023-11-22T04:19:32;8.63;;;5.35;;
3997;SDS011;61314;53.444;9.902;2023-11-22T04:22:00;8.95;;;5.00;;
3997;SDS011;61314;53.444;9.902;2023-11-22T04:24:27;5.70;;;4.88;;
3997;SDS011;61314;53.444;9.902;2023-11-22T04:26:54;5.85;;;5.13;;
3997;SDS011;61314;53.444;9.902;2023-11-22T04:29:22;10.10;;;5.57;;
3997;SDS011;61314;53.444;9.902;2023-11-22T04:31:49;5.43;;;4.90;;
3997;SDS011;61314;53.444;9.902;2023-11-22T04:34:16;6.25;;;5.07;;
3997;SDS011;61314;53.444;9.902;2023-11-22T04:36:43;14.23;;;7.07;;
3997;SDS011;61314;53.444;9.902;2023-11-22T04:39:13;10.30;;;5.10;;
3997;SDS011;61314;53.444;9.902;2023-11-22T04:41:40;7.55;;;6.05;;
3997;SDS011;61314;53.444;9.902;2023-11-22T04:44:07;12.38;;;6.25;;
3997;SDS011;61314;53.444;9.902;2023-11-22T04:46:34;8.73;;;6.05;;
3997;SDS011;61314;53.444;9.902;2023-11-22T04:49:01;9.45;;;6.53;;
3997;SDS011;61314;53.444;9.902;2023-11-22T04:51:29;8.40;;;5.07;;
3997;SDS011;61314;53.444;9.902;2023-11-22T04:53:56;6.03;;;4.93;;
3997;SDS011;61314;53.444;9.902;2023-11-22T04:56:23;5.80;;;5.13;;
3997;SDS011;61314;53.444;9.902;2023-11-22T04:58:51;6.25;;;5.65;;
3997;SDS011;61314;53.444;9.902;2023-11-22T05:01:18;6.32;;;5.65;;
3997;SDS011;61314;53.444;9.902;2023-11-22T05:03:48;6.07;;;4.55;;
3997;SDS011;61314;53.444;9.902;2023-11-22T05:06:15;6.75;;;5.47;;
3997;SDS011;61314;53.444;9.902;2023-11-22T05:08:43;8.23;;;5.63;;
3997;SDS011;61314;53.444;9.902;2023-11-22T05:11:10;11.40;;;5.80;;
3997;SDS011;61314;53.444;9.902;2023-11-22T05:13:37;6.72;;;5.15;;
3997;SDS011;61314;53.444;9.902;2023-11-22T05:16:05;5.85;;;4.80;;
3997;SDS011;61314;53.444;9.902;2023-11-22T05:18:32;10.63;;;5.63;;
3997;SDS011;61314;53.444;9.902;2023-11-22T05:20:59;7.50;;;6.10;;
3997;SDS011;61314;53.444;9.902;2023-11-22T05:23:26;6.28;;;4.85;;
3997;SDS011;61314;53.444;9.902;2023-11-22T05:25:53;10.40;;;6.20;;
3997;SDS011;61314;53.444;9.902;2023-11-22T05:28:22;4.70;;;4.18;;
3997;SDS011;61314;53.444;9.902;2023-11-22T05:30:49;7.03;;;5.15;;
3997;SDS011;61314;53.444;9.902;2023-11-22T05:33:16;6.75;;;5.18;;
3997;SDS011;61314;53.444;9.902;2023-11-22T05:35:44;10.45;;;5.50;;
3997;SDS011;61314;53.444;9.902;2023-11-22T05:38:11;9.48;;;5.65;;
3997;SDS011;61314;53.444;9.902;2023-11-22T05:40:38;5.55;;;4.85;;
3997;SDS011;61314;53.444;9.902;2023-11-22T05:43:05;8.55;;;4.95;;
3997;SDS011;61314;53.444;9.902;2023-11-22T05:45:38;8.02;;;4.68;;
3997;SDS011;61314;53.444;9.902;2023-11-22T05:48:05;8.65;;;5.57;;
3997;SDS011;61314;53.444;9.902;2023-11-22T05:50:32;7.78;;;6.00;;
3997;SDS011;61314;53.444;9.902;2023-11-22T05:52:59;10.63;;;5.22;;
3997;SDS011;61314;53.444;9.902;2023-11-22T05:55:26;10.48;;;5.95;;
3997;SDS011;61314;53.444;9.902;2023-11-22T05:57:54;8.00;;;5.38;;
3997;SDS011;61314;53.444;9.902;2023-11-22T06:00:21;7.82;;;5.40;;
3997;SDS011;61314;53.444;9.902;2023-11-22T06:02:48;7.68;;;6.20;;
3997;SDS011;61314;53.444;9.902;2023-11-22T06:05:15;9.77;;;6.63;;
3997;SDS011;61314;53.444;9.902;2023-11-22T06:07:42;12.10;;;7.60;;
3997;SDS011;61314;53.444;9.902;2023-11-22T06:10:10;9.98;;;6.40;;
3997;SDS011;61314;53.444;9.902;2023-11-22T06:12:39;7.95;;;5.60;;
3997;SDS011;61314;53.444;9.902;2023-11-22T06:15:06;8.90;;;6.43;;
3997;SDS011;61314;53.444;9.902;2023-11-22T06:17:33;7.00;;;6.00;;
3997;SDS011;61314;53.444;9.902;2023-11-22T06:20:01;8.63;;;5.82;;
3997;SDS011;61314;53.444;9.902;2023-11-22T06:22:29;7.30;;;5.80;;
3997;SDS011;61314;53.444;9.902;2023-11-22T06:24:56;9.85;;;5.93;;
3997;SDS011;61314;53.444;9.902;2023-11-22T06:27:24;7.28;;;5.70;;
3997;SDS011;61314;53.444;9.902;2023-11-22T06:29:51;7.10;;;5.13;;
3997;SDS011;61314;53.444;9.902;2023-11-22T06:32:18;8.32;;;5.80;;
3997;SDS011;61314;53.444;9.902;2023-11-22T06:34:45;6.78;;;5.97;;
3997;SDS011;61314;53.444;9.902;2023-11-22T06:37:12;7.93;;;5.68;;
3997;SDS011;61314;53.444;9.902;2023-11-22T06:39:39;7.72;;;6.05;;
3997;SDS011;61314;53.444;9.902;2023-11-22T06:42:08;10.38;;;6.40;;
3997;SDS011;61314;53.444;9.902;2023-11-22T06:44:36;10.15;;;6.60;;
3997;SDS011;61314;53.444;9.902;2023-11-22T06:47:04;6.70;;;6.05;;
3997;SDS011;61314;53.444;9.902;2023-11-22T06:49:32;7.35;;;5.95;;
3997;SDS011;61314;53.444;9.902;2023-11-22T06:51:59;7.88;;;5.85;;
3997;SDS011;61314;53.444;9.902;2023-11-22T06:54:26;6.53;;;5.80;;
3997;SDS011;61314;53.444;9.902;2023-11-22T06:56:53;11.02;;;7.00;;
3997;SDS011;61314;53.444;9.902;2023-11-22T06:59:20;11.90;;;7.80;;
3997;SDS011;61314;53.444;9.902;2023-11-22T07:01:47;10.60;;;8.00;;
3997;SDS011;61314;53.444;9.902;2023-11-22T07:04:15;8.05;;;6.40;;
3997;SDS011;61314;53.444;9.902;2023-11-22T07:06:43;10.05;;;6.22;;
3997;SDS011;61314;53.444;9.902;2023-11-22T07:09:10;13.35;;;7.47;;
3997;SDS011;61314;53.444;9.902;2023-11-22T07:11:38;10.00;;;6.70;;
3997;SDS011;61314;53.444;9.902;2023-11-22T07:14:05;11.13;;;6.63;;
3997;SDS011;61314;53.444;9.902;2023-11-22T07:16:33;7.72;;;6.25;;
3997;SDS011;61314;53.444;9.902;2023-11-22T07:19:00;10.90;;;6.88;;
3997;SDS011;61314;53.444;9.902;2023-11-22T07:21:29;8.80;;;6.68;;
3997;SDS011;61314;53.444;9.902;2023-11-22T07:23:56;9.15;;;5.40;;
3997;SDS011;61314;53.444;9.902;2023-11-22T07:26:25;10.23;;;6.40;;
3997;SDS011;61314;53.444;9.902;2023-11-22T07:28:53;7.32;;;5.15;;
3997;SDS011;61314;53.444;9.902;2023-11-22T07:31:20;7.30;;;6.50;;
3997;SDS011;61314;53.444;9.902;2023-11-22T07:33:48;9.52;;;6.03;;
3997;SDS011;61314;53.444;9.902;2023-11-22T07:36:16;8.18;;;6.53;;
3997;SDS011;61314;53.444;9.902;2023-11-22T07:38:43;12.45;;;6.70;;
3997;SDS011;61314;53.444;9.902;2023-11-22T07:41:10;9.80;;;6.95;;
3997;SDS011;61314;53.444;9.902;2023-11-22T07:43:37;14.55;;;7.43;;
3997;SDS011;61314;53.444;9.902;2023-11-22T07:46:05;11.27;;;7.53;;
3997;SDS011;61314;53.444;9.902;2023-11-22T07:48:42;12.63;;;8.50;;
3997;SDS011;61314;53.444;9.902;2023-11-22T07:51:09;9.57;;;7.40;;
3997;SDS011;61314;53.444;9.902;2023-11-22T07:53:37;9.20;;;7.32;;
3997;SDS011;61314;53.444;9.902;2023-11-22T07:56:05;8.30;;;6.32;;
3997;SDS011;61314;53.444;9.902;2023-11-22T07:58:33;10.75;;;6.35;;
3997;SDS011;61314;53.444;9.902;2023-11-22T08:01:01;8.00;;;6.10;;
3997;SDS011;61314;53.444;9.902;2023-11-22T08:03:32;11.23;;;6.32;;
3997;SDS011;61314;53.444;9.902;2023-11-22T08:06:01;9.52;;;5.57;;
3997;SDS011;61314;53.444;9.902;2023-11-22T08:08:29;7.93;;;5.70;;
3997;SDS011;61314;53.444;9.902;2023-11-22T08:10:56;6.95;;;6.40;;
3997;SDS011;61314;53.444;9.902;2023-11-22T08:13:23;8.73;;;6.45;;
3997;SDS011;61314;53.444;9.902;2023-11-22T08:15:50;9.13;;;6.15;;
3997;SDS011;61314;53.444;9.902;2023-11-22T08:18:19;7.03;;;6.32;;
3997;SDS011;61314;53.444;9.902;2023-11-22T08:20:48;11.27;;;7.28;;
3997;SDS011;61314;53.444;9.902;2023-11-22T08:23:16;7.45;;;6.28;;
3997;SDS011;61314;53.444;9.902;2023-11-22T08:25:44;10.23;;;7.05;;
3997;SDS011;61314;53.444;9.902;2023-11-22T08:28:11;10.52;;;7.00;;
3997;SDS011;61314;53.444;9.902;2023-11-22T08:30:39;8.95;;;6.53;;
3997;SDS011;61314;53.444;9.902;2023-11-22T08:33:07;10.63;;;6.93;;
3997;SDS011;61314;53.444;9.902;2023-11-22T08:35:35;7.75;;;6.65;;
3997;SDS011;61314;53.444;9.902;2023-11-22T08:38:02;13.13;;;7.45;;
3997;SDS011;61314;53.444;9.902;2023-11-22T08:40:31;13.23;;;8.45;;
3997;SDS011;61314;53.444;9.902;2023-11-22T08:42:58;9.85;;;6.65;;
3997;SDS011;61314;53.444;9.902;2023-11-22T08:45:25;11.15;;;7.07;;
3997;SDS011;61314;53.444;9.902;2023-11-22T08:47:55;9.68;;;6.60;;
3997;SDS011;61314;53.444;9.902;2023-11-22T08:50:22;8.73;;;6.72;;
3997;SDS011;61314;53.444;9.902;2023-11-22T08:52:49;9.13;;;6.78;;
3997;SDS011;61314;53.444;9.902;2023-11-22T08:55:20;8.98;;;6.70;;
3997;SDS011;61314;53.444;9.902;2023-11-22T08:57:51;11.77;;;8.02;;
3997;SDS011;61314;53.444;9.902;2023-11-22T09:00:18;15.40;;;7.65;;
3997;SDS011;61314;53.444;9.902;2023-11-22T09:02:54;9.70;;;6.53;;
3997;SDS011;61314;53.444;9.902;2023-11-22T09:05:21;6.47;;;5.22;;
3997;SDS011;61314;53.444;9.902;2023-11-22T09:07:48;8.70;;;6.22;;
3997;SDS011;61314;53.444;9.902;2023-11-22T09:10:17;6.97;;;4.40;;
3997;SDS011;61314;53.444;9.902;2023-11-22T09:12:45;4.15;;;3.40;;
3997;SDS011;61314;53.444;9.902;2023-11-22T09:15:14;5.13;;;4.43;;
3997;SDS011;61314;53.444;9.902;2023-11-22T09:17:44;5.68;;;4.45;;
3997;SDS011;61314;53.444;9.902;2023-11-22T09:20:13;10.32;;;4.75;;
3997;SDS011;61314;53.444;9.902;2023-11-22T09:22:48;9.90;;;6.70;;
3997;SDS011;61314;53.444;9.902;2023-11-22T09:25:17;8.57;;;5.60;;
3997;SDS011;61314;53.444;9.902;2023-11-22T09:27:47;7.30;;;5.25;;
3997;SDS011;61314;53.444;9.902;2023-11-22T09:30:21;12.85;;;5.95;;
3997;SDS011;61314;53.444;9.902;2023-11-22T09:32:59;10.07;;;6.50;;
3997;SDS011;61314;53.444;9.902;2023-11-22T09:35:27;8.10;;;5.65;;
3997;SDS011;61314;53.444;9.902;2023-11-22T09:37:58;10.32;;;5.65;;
3997;SDS011;61314;53.444;9.902;2023-11-22T09:40:26;7.95;;;5.55;;
3997;SDS011;61314;53.444;9.902;2023-11-22T09:42:55;5.68;;;5.07;;
3997;SDS011;61314;53.444;9.902;2023-11-22T09:45:24;5.10;;;4.55;;
3997;SDS011;61314;53.444;9.902;2023-11-22T09:47:55;10.88;;;5.78;;
3997;SDS011;61314;53.444;9.902;2023-11-22T09:50:29;7.80;;;4.63;;
3997;SDS011;61314;53.444;9.902;2023-11-22T09:53:02;8.80;;;4.07;;
3997;SDS011;61314;53.444;9.902;2023-11-22T09:55:30;5.03;;;4.38;;
3997;SDS011;61314;53.444;9.902;2023-11-22T09:57:58;3.80;;;3.45;;
3997;SDS011;61314;53.444;9.902;2023-11-22T10:00:27;5.70;;;3.90;;
3997;SDS011;61314;53.444;9.902;2023-11-22T10:02:56;3.88;;;3.53;;
3997;SDS011;61314;53.444;9.902;2023-11-22T10:05:24;3.47;;;3.10;;
3997;SDS011;61314;53.444;9.902;2023-11-22T10:07:55;3.85;;;3.55;;
3997;SDS011;61314;53.444;9.902;2023-11-22T10:10:22;3.47;;;2.83;;
3997;SDS011;61314;53.444;9.902;2023-11-22T10:12:53;6.93;;;4.70;;
3997;SDS011;61314;53.444;9.902;2023-11-22T10:15:22;6.68;;;4.97;;
3997;SDS011;61314;53.444;9.902;2023-11-22T10:17:56;5.40;;;4.25;;
3997;SDS011;61314;53.444;9.902;2023-11-22T10:20:24;5.13;;;4.30;;
3997;SDS011;61314;53.444;9.902;2023-11-22T10:22:54;4.53;;;4.15;;
3997;SDS011;61314;53.444;9.902;2023-11-22T10:25:21;4.10;;;3.70;;
3997;SDS011;61314;53.444;9.902;2023-11-22T10:27:49;6.32;;;4.25;;
3997;SDS011;61314;53.444;9.902;2023-11-22T10:30:18;6.22;;;4.07;;
3997;SDS011;61314;53.444;9.902;2023-11-22T10:32:45;9.75;;;4.65;;
3997;SDS011;61314;53.444;9.902;2023-11-22T10:35:12;4.32;;;4.03;;
3997;SDS011;61314;53.444;9.902;2023-11-22T10:37:43;4.38;;;3.88;;
3997;SDS011;61314;53.444;9.902;2023-11-22T10:40:11;3.97;;;3.67;;
3997;SDS011;61314;53.444;9.902;2023-11-22T10:42:42;7.30;;;4.28;;
3997;SDS011;61314;53.444;9.902;2023-11-22T10:45:09;4.95;;;3.92;;
3997;SDS011;61314;53.444;9.902;2023-11-22T10:47:37;4.25;;;3.95;;
3997;SDS011;61314;53.444;9.902;2023-11-22T10:50:05;12.30;;;4.47;;
3997;SDS011;61314;53.444;9.902;2023-11-22T10:52:34;6.70;;;4.50;;
3997;SDS011;61314;53.444;9.902;2023-11-22T10:55:03;5.93;;;5.07;;
3997;SDS011;61314;53.444;9.902;2023-11-22T10:57:31;5.40;;;4.90;;
3997;SDS011;61314;53.444;9.902;2023-11-22T11:00:00;4.78;;;4.38;;
3997;SDS011;61314;53.444;9.902;2023-11-22T11:02:37;5.85;;;4.15;;
3997;SDS011;61314;53.444;9.902;2023-11-22T11:05:10;4.25;;;3.92;;
3997;SDS011;61314;53.444;9.902;2023-11-22T11:07:48;9.35;;;4.80;;
3997;SDS011;61314;53.444;9.902;2023-11-22T11:10:18;6.00;;;4.85;;
3997;SDS011;61314;53.444;9.902;2023-11-22T11:12:50;5.03;;;4.53;;
3997;SDS011;61314;53.444;9.902;2023-11-22T11:15:19;7.80;;;4.88;;
3997;SDS011;61314;53.444;9.902;2023-11-22T11:17:48;7.20;;;5.55;;
3997;SDS011;61314;53.444;9.902;2023-11-22T11:20:16;5.47;;;4.20;;
3997;SDS011;61314;53.444;9.902;2023-11-22T11:22:46;4.97;;;4.45;;
3997;SDS011;61314;53.444;9.902;2023-11-22T11:25:15;7.60;;;4.60;;
3997;SDS011;61314;53.444;9.902;2023-11-22T11:27:55;4.20;;;3.85;;
3997;SDS011;61314;53.444;9.902;2023-11-22T11:33:04;5.03;;;4.32;;
3997;SDS011;61314;53.444;9.902;2023-11-22T11:35:38;8.18;;;5.00;;
3997;SDS011;61314;53.444;9.902;2023-11-22T11:38:05;5.68;;;4.65;;
3997;SDS011;61314;53.444;9.902;2023-11-22T11:40:40;7.00;;;4.07;;
3997;SDS011;61314;53.444;9.902;2023-11-22T11:43:08;4.80;;;3.92;;
3997;SDS011;61314;53.444;9.902;2023-11-22T11:45:37;7.40;;;5.20;;
3997;SDS011;61314;53.444;9.902;2023-11-22T11:48:06;4.93;;;4.43;;
3997;SDS011;61314;53.444;9.902;2023-11-22T11:50:33;5.80;;;4.38;;
3997;SDS011;61314;53.444;9.902;2023-11-22T11:53:01;8.23;;;4.93;;
3997;SDS011;61314;53.444;9.902;2023-11-22T11:55:28;7.57;;;4.70;;
3997;SDS011;61314;53.444;9.902;2023-11-22T11:57:55;5.55;;;4.53;;
3997;SDS011;61314;53.444;9.902;2023-11-22T12:00:23;5.75;;;4.15;;
3997;SDS011;61314;53.444;9.902;2023-11-22T12:02:50;6.40;;;4.38;;
3997;SDS011;61314;53.444;9.902;2023-11-22T12:05:18;4.07;;;3.78;;
3997;SDS011;61314;53.444;9.902;2023-11-22T12:07:46;3.95;;;3.47;;
3997;SDS011;61314;53.444;9.902;2023-11-22T12:10:14;3.83;;;3.00;;
3997;SDS011;61314;53.444;9.902;2023-11-22T12:12:44;4.70;;;3.35;;
3997;SDS011;61314;53.444;9.902;2023-11-22T12:15:12;3.65;;;3.35;;
3997;SDS011;61314;53.444;9.902;2023-11-22T12:17:41;2.67;;;2.47;;
3997;SDS011;61314;53.444;9.902;2023-11-22T12:20:15;3.78;;;3.13;;
3997;SDS011;61314;53.444;9.902;2023-11-22T12:22:45;2.90;;;2.70;;
3997;SDS011;61314;53.444;9.902;2023-11-22T12:25:13;2.75;;;2.50;;
3997;SDS011;61314;53.444;9.902;2023-11-22T12:27:41;2.90;;;2.70;;
3997;SDS011;61314;53.444;9.902;2023-11-22T12:30:08;2.97;;;2.67;;
3997;SDS011;61314;53.444;9.902;2023-11-22T12:32:40;2.50;;;2.30;;
3997;SDS011;61314;53.444;9.902;2023-11-22T12:35:08;2.38;;;2.25;;
3997;SDS011;61314;53.444;9.902;2023-11-22T12:37:37;2.80;;;2.60;;
3997;SDS011;61314;53.444;9.902;2023-11-22T12:40:11;2.67;;;2.58;;
3997;SDS011;61314;53.444;9.902;2023-11-22T12:42:46;2.00;;;1.90;;
3997;SDS011;61314;53.444;9.902;2023-11-22T12:45:20;2.60;;;2.38;;
3997;SDS011;61314;53.444;9.902;2023-11-22T12:47:50;2.40;;;2.20;;
3997;SDS011;61314;53.444;9.902;2023-11-22T12:50:30;1.98;;;1.77;;
3997;SDS011;61314;53.444;9.902;2023-11-22T12:52:58;1.98;;;1.88;;
3997;SDS011;61314;53.444;9.902;2023-11-22T12:55:26;2.10;;;1.90;;
3997;SDS011;61314;53.444;9.902;2023-11-22T12:57:57;1.88;;;1.70;;
3997;SDS011;61314;53.444;9.902;2023-11-22T13:00:25;1.73;;;1.63;;
3997;SDS011;61314;53.444;9.902;2023-11-22T13:02:55;1.80;;;1.70;;
3997;SDS011;61314;53.444;9.902;2023-11-22T13:05:29;1.60;;;1.50;;
3997;SDS011;61314;53.444;9.902;2023-11-22T13:07:57;1.73;;;1.58;;
3997;SDS011;61314;53.444;9.902;2023-11-22T13:10:27;2.75;;;1.60;;
3997;SDS011;61314;53.444;9.902;2023-11-22T13:12:56;3.35;;;1.92;;
3997;SDS011;61314;53.444;9.902;2023-11-22T13:15:23;2.30;;;1.90;;
3997;SDS011;61314;53.444;9.902;2023-11-22T13:17:52;1.70;;;1.60;;
3997;SDS011;61314;53.444;9.902;2023-11-22T13:20:23;1.70;;;1.60;;
3997;SDS011;61314;53.444;9.902;2023-11-22T13:22:52;3.15;;;1.80;;
3997;SDS011;61314;53.444;9.902;2023-11-22T13:25:19;1.85;;;1.75;;
3997;SDS011;61314;53.444;9.902;2023-11-22T13:27:47;3.33;;;2.20;;
3997;SDS011;61314;53.444;9.902;2023-11-22T13:30:14;2.10;;;1.80;;
3997;SDS011;61314;53.444;9.902;2023-11-22T13:32:43;5.65;;;4.53;;
3997;SDS011;61314;53.444;9.902;2023-11-22T13:35:11;5.55;;;4.50;;
3997;SDS011;61314;53.444;9.902;2023-11-22T13:37:41;4.03;;;3.63;;
3997;SDS011;61314;53.444;9.902;2023-11-22T13:40:12;15.65;;;7.53;;
3997;SDS011;61314;53.444;9.902;2023-11-22T13:42:43;13.70;;;6.05;;
3997;SDS011;61314;53.444;9.902;2023-11-22T13:45:11;5.53;;;4.00;;
3997;SDS011;61314;53.444;9.902;2023-11-22T13:47:42;3.42;;;2.90;;
3997;SDS011;61314;53.444;9.902;2023-11-22T13:50:10;1.85;;;1.75;;
3997;SDS011;61314;53.444;9.902;2023-11-22T13:52:40;2.20;;;2.00;;
3997;SDS011;61314;53.444;9.902;2023-11-22T13:55:07;1.65;;;1.55;;
3997;SDS011;61314;53.444;9.902;2023-11-22T13:57:37;2.92;;;2.72;;
3997;SDS011;61314;53.444;9.902;2023-11-22T14:00:04;2.70;;;2.55;;
3997;SDS011;61314;53.444;9.902;2023-11-22T14:02:53;2.90;;;2.70;;
3997;SDS011;61314;53.444;9.902;2023-11-22T14:05:23;2.67;;;2.38;;
3997;SDS011;61314;53.444;9.902;2023-11-22T14:07:50;3.05;;;1.90;;
3997;SDS011;61314;53.444;9.902;2023-11-22T14:10:18;2.45;;;1.67;;
3997;SDS011;61314;53.444;9.902;2023-11-22T14:12:48;1.70;;;1.60;;
3997;SDS011;61314;53.444;9.902;2023-11-22T14:15:15;2.03;;;1.83;;
3997;SDS011;61314;53.444;9.902;2023-11-22T14:17:42;2.50;;;1.90;;
3997;SDS011;61314;53.444;9.902;2023-11-22T14:20:10;1.85;;;1.75;;
3997;SDS011;61314;53.444;9.902;2023-11-22T14:22:40;2.03;;;1.92;;
3997;SDS011;61314;53.444;9.902;2023-11-22T14:25:09;2.10;;;1.90;;
3997;SDS011;61314;53.444;9.902;2023-11-22T14:27:44;4.45;;;1.95;;
3997;SDS011;61314;53.444;9.902;2023-11-22T14:30:12;1.63;;;1.52;;
3997;SDS011;61314;53.444;9.902;2023-11-22T14:32:43;2.20;;;2.03;;
3997;SDS011;61314;53.444;9.902;2023-11-22T14:35:11;2.10;;;1.88;;
3997;SDS011;61314;53.444;9.902;2023-11-22T14:37:39;2.13;;;2.03;;
3997;SDS011;61314;53.444;9.902;2023-11-22T14:40:07;2.33;;;2.13;;
3997;SDS011;61314;53.444;9.902;2023-11-22T14:42:40;4.70;;;3.40;;
3997;SDS011;61314;53.444;9.902;2023-11-22T14:45:11;9.00;;;5.25;;
3997;SDS011;61314;53.444;9.902;2023-11-22T14:47:39;11.18;;;4.15;;
3997;SDS011;61314;53.444;9.902;2023-11-22T14:50:07;5.47;;;3.33;;
3997;SDS011;61314;53.444;9.902;2023-11-22T14:52:37;4.10;;;3.30;;
3997;SDS011;61314;53.444;9.902;2023-11-22T14:55:05;3.10;;;2.80;;
3997;SDS011;61314;53.444;9.902;2023-11-22T14:57:33;3.33;;;2.70;;
3997;SDS011;61314;53.444;9.902;2023-11-22T15:00:00;3.17;;;2.90;;
3997;SDS011;61314;53.444;9.902;2023-11-22T15:02:28;2.58;;;2.30;;
3997;SDS011;61314;53.444;9.902;2023-11-22T15:04:55;2.75;;;2.55;;
3997;SDS011;61314;53.444;9.902;2023-11-22T15:07:22;2.70;;;2.60;;
3997;SDS011;61314;53.444;9.902;2023-11-22T15:09:50;3.08;;;2.85;;